Pagrindinis puslapis
METAR-TAF:

METAR-TAF

Oro uostai :

Pensacola Regional Airport

Pensakola, Florida, Jungtinės Amerikos Valstijos

platuma: 30-28-41N, ilguma: 087-11-13W, Aukštis: 36 m

Dabartinis oras

Ataskaita buvo paskelbta 1 valandą ir 4 minutes, ne 16:53 UTC
Vėjas 4 kt iš Šiaurės/Šiaurės Rytų
Temperatūra 20°C
Drėgmė 53%
Slėgis 1016 hPa
Matomumas: 16.1 km
Giedras dangus

METAR: KPNS 171653Z 02004KT 10SM CLR 20/10 A3001 RMK AO2 SLP165 T02000100

Laikas: 12:57 (17:57 UTC)

Prognozė

Ataskaita buvo paskelbta 6 valandos ir 37 minutes, ne 11:20 UTC
Prognozė galioja nuo 17 metu 12 UTC su 18 metu 12 UTC
Vėjas 8 kt iš Šiaurės
Matomumas: 10 km
Su prošvaistėmis ne aukštis 25000 ft
Nuo 18 metu 0300 UTC
Vėjas 4 kt iš Šiaurės Rytų
Matomumas: 10 km
Su prošvaistėmis ne aukštis 25000 ft

TAF: KPNS 171120Z 1712/1812 36008KT P6SM BKN250 FM180300 05004KT P6SM BKN250

Orai ataskaitas ir orų prognozės (METAR, TAF).

turimą stotys yra geltonos ir raudonos taškus žemėlapyje.

Perkelti pele per norėdami pamatyti stoties vardą.

Tada spustelėkite, norėdami matyti oro stebėjimo ir prognozės.

Norėdami pakeisti žemėlapį: spustelėkite ant žalios mygtukų su juodo kryžiaus žemyn,; žalią mygtuką su brūkšneliu, jei norite nutolinti; arba žalių rodyklių gretimoms žemėlapius.


METAR-TAF: